Altus Air Force Base Altus US
ICAO: KLTS
IATA: LTS
Category: Large
Scheduled Services: No

Elevation: 1382 ft
TransAlt. 18000 ft.

Airport Communications:
APP:125.1
ATIS:27.35
CLNC DEL:120.65
DEP:125.1
GND:121.85
PMSV METRO:23.98
COMD POST:31.1
PTD:37.22
TWR:119.65

KLTS Zoom In..

Runways:

(A) RW 17L length 9001 ft width 150 ft
ILS 110.55 / hdg 172

(B) RW 17R length 13440 ft width 150 ft
ILS 111.30 / hdg 172

(C) RW 35L length 13440 ft width 150 ft
ILS 110.30 / hdg 352

(D) RW 35R length 9001 ft width 150 ft
ILS 110.55 / hdg 352

Location; KLTS
Day. 17 / Time. 06.56 Zulu
* Altimeter: 30.00
* Temperature: 28° c. 82.4°f.
* Wind from: 130° Speed 04 kn.
Dewpoint: 20° c.
Visibility: 10 Statute Miles.
Clouds: Scattered 13000 ft.

KLTS 170656Z AUTO 13004KT 10SM SCT130 28/20 A3000 RMK AO2 SLP139 T02750195 $


Wind From 130°
Speed 04 kn.

 
 
jpsmedia.com for Web Design worldairports.se 2018   terms of use